sensor_id;sensor_type;location;lat;lon;timestamp;P1;durP1;ratioP1;P2;durP2;ratioP2
59938;SDS011;45801;51.810;19.444;2023-07-29T00:01:57;8.70;;;5.40;;
59938;SDS011;45801;51.810;19.444;2023-07-29T00:04:24;10.60;;;4.80;;
59938;SDS011;45801;51.810;19.444;2023-07-29T00:06:52;8.00;;;5.40;;
59938;SDS011;45801;51.810;19.444;2023-07-29T00:09:18;7.80;;;4.80;;
59938;SDS011;45801;51.810;19.444;2023-07-29T00:11:46;9.90;;;5.30;;
59938;SDS011;45801;51.810;19.444;2023-07-29T00:14:12;8.50;;;5.20;;
59938;SDS011;45801;51.810;19.444;2023-07-29T00:16:39;9.00;;;5.60;;
59938;SDS011;45801;51.810;19.444;2023-07-29T00:19:06;9.00;;;4.80;;
59938;SDS011;45801;51.810;19.444;2023-07-29T00:21:32;9.20;;;5.20;;
59938;SDS011;45801;51.810;19.444;2023-07-29T00:24:01;9.40;;;5.00;;
59938;SDS011;45801;51.810;19.444;2023-07-29T00:26:27;9.00;;;5.50;;
59938;SDS011;45801;51.810;19.444;2023-07-29T00:28:55;8.90;;;5.60;;
59938;SDS011;45801;51.810;19.444;2023-07-29T00:31:22;8.40;;;5.50;;
59938;SDS011;45801;51.810;19.444;2023-07-29T00:33:49;7.90;;;5.50;;
59938;SDS011;45801;51.810;19.444;2023-07-29T00:36:15;8.40;;;5.70;;
59938;SDS011;45801;51.810;19.444;2023-07-29T00:38:42;9.70;;;6.00;;
59938;SDS011;45801;51.810;19.444;2023-07-29T00:41:08;9.20;;;6.00;;
59938;SDS011;45801;51.810;19.444;2023-07-29T00:43:39;8.40;;;5.50;;
59938;SDS011;45801;51.810;19.444;2023-07-29T00:46:08;9.10;;;6.40;;
59938;SDS011;45801;51.810;19.444;2023-07-29T00:48:36;9.40;;;5.90;;
59938;SDS011;45801;51.810;19.444;2023-07-29T00:51:03;9.80;;;6.70;;
59938;SDS011;45801;51.810;19.444;2023-07-29T00:53:30;9.20;;;6.40;;
59938;SDS011;45801;51.810;19.444;2023-07-29T00:55:56;10.70;;;6.60;;
59938;SDS011;45801;51.810;19.444;2023-07-29T00:58:23;11.90;;;6.30;;
59938;SDS011;45801;51.810;19.444;2023-07-29T01:00:50;10.70;;;6.70;;
59938;SDS011;45801;51.810;19.444;2023-07-29T01:03:17;9.50;;;6.50;;
59938;SDS011;45801;51.810;19.444;2023-07-29T01:05:50;8.90;;;6.00;;
59938;SDS011;45801;51.810;19.444;2023-07-29T01:08:46;11.60;;;6.90;;
59938;SDS011;45801;51.810;19.444;2023-07-29T01:14:25;10.00;;;6.90;;
59938;SDS011;45801;51.810;19.444;2023-07-29T01:17:19;10.10;;;6.80;;
59938;SDS011;45801;51.810;19.444;2023-07-29T01:20:04;10.60;;;7.00;;
59938;SDS011;45801;51.810;19.444;2023-07-29T01:22:35;11.20;;;6.60;;
59938;SDS011;45801;51.810;19.444;2023-07-29T01:25:03;11.30;;;6.80;;
59938;SDS011;45801;51.810;19.444;2023-07-29T01:27:30;10.70;;;7.10;;
59938;SDS011;45801;51.810;19.444;2023-07-29T01:29:57;9.50;;;6.80;;
59938;SDS011;45801;51.810;19.444;2023-07-29T01:32:43;9.60;;;6.70;;
59938;SDS011;45801;51.810;19.444;2023-07-29T01:35:19;9.60;;;6.10;;
59938;SDS011;45801;51.810;19.444;2023-07-29T01:37:52;9.40;;;6.00;;
59938;SDS011;45801;51.810;19.444;2023-07-29T01:40:22;11.30;;;6.20;;
59938;SDS011;45801;51.810;19.444;2023-07-29T01:42:55;10.00;;;6.50;;
59938;SDS011;45801;51.810;19.444;2023-07-29T01:45:26;11.40;;;6.50;;
59938;SDS011;45801;51.810;19.444;2023-07-29T01:47:53;11.10;;;6.80;;
59938;SDS011;45801;51.810;19.444;2023-07-29T01:50:20;9.20;;;6.40;;
59938;SDS011;45801;51.810;19.444;2023-07-29T01:52:47;12.30;;;6.90;;
59938;SDS011;45801;51.810;19.444;2023-07-29T01:55:13;10.30;;;6.20;;
59938;SDS011;45801;51.810;19.444;2023-07-29T01:57:40;10.10;;;6.30;;
59938;SDS011;45801;51.810;19.444;2023-07-29T02:00:06;9.70;;;6.50;;
59938;SDS011;45801;51.810;19.444;2023-07-29T02:02:34;11.30;;;6.40;;
59938;SDS011;45801;51.810;19.444;2023-07-29T02:05:00;10.60;;;6.70;;
59938;SDS011;45801;51.810;19.444;2023-07-29T02:07:27;8.90;;;6.10;;
59938;SDS011;45801;51.810;19.444;2023-07-29T02:09:53;9.60;;;6.70;;
59938;SDS011;45801;51.810;19.444;2023-07-29T02:12:20;9.90;;;7.10;;
59938;SDS011;45801;51.810;19.444;2023-07-29T02:14:46;10.40;;;6.60;;
59938;SDS011;45801;51.810;19.444;2023-07-29T02:17:13;9.50;;;6.40;;
59938;SDS011;45801;51.810;19.444;2023-07-29T02:19:39;10.60;;;7.10;;
59938;SDS011;45801;51.810;19.444;2023-07-29T02:22:06;9.80;;;6.80;;
59938;SDS011;45801;51.810;19.444;2023-07-29T02:24:32;11.10;;;7.30;;
59938;SDS011;45801;51.810;19.444;2023-07-29T02:26:59;10.70;;;7.70;;
59938;SDS011;45801;51.810;19.444;2023-07-29T02:29:25;12.80;;;8.60;;
59938;SDS011;45801;51.810;19.444;2023-07-29T02:31:52;10.40;;;7.00;;
59938;SDS011;45801;51.810;19.444;2023-07-29T02:34:18;12.20;;;8.70;;
59938;SDS011;45801;51.810;19.444;2023-07-29T02:36:45;15.00;;;9.40;;
59938;SDS011;45801;51.810;19.444;2023-07-29T02:39:11;15.70;;;10.20;;
59938;SDS011;45801;51.810;19.444;2023-07-29T02:41:38;16.60;;;11.50;;
59938;SDS011;45801;51.810;19.444;2023-07-29T02:44:04;14.50;;;11.10;;
59938;SDS011;45801;51.810;19.444;2023-07-29T02:46:31;16.20;;;11.20;;
59938;SDS011;45801;51.810;19.444;2023-07-29T02:48:58;16.40;;;12.50;;
59938;SDS011;45801;51.810;19.444;2023-07-29T02:51:25;15.80;;;12.20;;
59938;SDS011;45801;51.810;19.444;2023-07-29T02:53:52;14.70;;;10.50;;
59938;SDS011;45801;51.810;19.444;2023-07-29T02:56:18;16.10;;;12.10;;
59938;SDS011;45801;51.810;19.444;2023-07-29T02:58:45;16.20;;;11.70;;
59938;SDS011;45801;51.810;19.444;2023-07-29T03:01:11;17.20;;;12.50;;
59938;SDS011;45801;51.810;19.444;2023-07-29T03:03:37;16.60;;;12.30;;
59938;SDS011;45801;51.810;19.444;2023-07-29T03:06:06;20.40;;;12.80;;
59938;SDS011;45801;51.810;19.444;2023-07-29T03:08:34;16.00;;;12.60;;
59938;SDS011;45801;51.810;19.444;2023-07-29T03:11:12;17.30;;;11.90;;
59938;SDS011;45801;51.810;19.444;2023-07-29T03:13:40;17.00;;;12.30;;
59938;SDS011;45801;51.810;19.444;2023-07-29T03:16:11;17.20;;;12.80;;
59938;SDS011;45801;51.810;19.444;2023-07-29T03:18:40;16.80;;;12.10;;
59938;SDS011;45801;51.810;19.444;2023-07-29T03:21:09;17.80;;;12.90;;
59938;SDS011;45801;51.810;19.444;2023-07-29T03:23:36;17.20;;;12.20;;
59938;SDS011;45801;51.810;19.444;2023-07-29T03:26:03;18.50;;;13.10;;
59938;SDS011;45801;51.810;19.444;2023-07-29T03:28:37;19.00;;;13.20;;
59938;SDS011;45801;51.810;19.444;2023-07-29T03:31:06;18.00;;;13.30;;
59938;SDS011;45801;51.810;19.444;2023-07-29T03:33:33;19.80;;;12.60;;
59938;SDS011;45801;51.810;19.444;2023-07-29T03:35:59;19.50;;;13.20;;
59938;SDS011;45801;51.810;19.444;2023-07-29T03:38:26;21.10;;;13.30;;
59938;SDS011;45801;51.810;19.444;2023-07-29T03:40:52;17.90;;;13.20;;
59938;SDS011;45801;51.810;19.444;2023-07-29T03:43:19;16.20;;;11.90;;
59938;SDS011;45801;51.810;19.444;2023-07-29T03:45:46;16.30;;;12.60;;
59938;SDS011;45801;51.810;19.444;2023-07-29T03:48:12;15.90;;;12.10;;
59938;SDS011;45801;51.810;19.444;2023-07-29T03:50:38;14.90;;;11.70;;
59938;SDS011;45801;51.810;19.444;2023-07-29T03:53:05;15.60;;;11.20;;
59938;SDS011;45801;51.810;19.444;2023-07-29T03:55:32;15.70;;;11.20;;
59938;SDS011;45801;51.810;19.444;2023-07-29T03:57:58;15.20;;;11.20;;
59938;SDS011;45801;51.810;19.444;2023-07-29T04:00:26;15.90;;;12.00;;
59938;SDS011;45801;51.810;19.444;2023-07-29T04:02:53;15.70;;;11.40;;
59938;SDS011;45801;51.810;19.444;2023-07-29T04:05:19;16.20;;;11.60;;
59938;SDS011;45801;51.810;19.444;2023-07-29T04:07:46;14.50;;;11.30;;
59938;SDS011;45801;51.810;19.444;2023-07-29T04:10:12;21.80;;;12.00;;
59938;SDS011;45801;51.810;19.444;2023-07-29T04:12:39;16.00;;;11.50;;
59938;SDS011;45801;51.810;19.444;2023-07-29T04:15:06;17.50;;;12.10;;
59938;SDS011;45801;51.810;19.444;2023-07-29T04:17:33;16.50;;;12.30;;
59938;SDS011;45801;51.810;19.444;2023-07-29T04:19:59;16.70;;;11.80;;
59938;SDS011;45801;51.810;19.444;2023-07-29T04:22:25;15.90;;;12.10;;
59938;SDS011;45801;51.810;19.444;2023-07-29T04:24:52;15.40;;;11.10;;
59938;SDS011;45801;51.810;19.444;2023-07-29T04:27:19;21.50;;;12.60;;
59938;SDS011;45801;51.810;19.444;2023-07-29T04:29:45;17.00;;;13.70;;
59938;SDS011;45801;51.810;19.444;2023-07-29T04:32:11;17.90;;;13.90;;
59938;SDS011;45801;51.810;19.444;2023-07-29T04:34:38;20.90;;;13.20;;
59938;SDS011;45801;51.810;19.444;2023-07-29T04:37:04;18.10;;;13.60;;
59938;SDS011;45801;51.810;19.444;2023-07-29T04:39:31;20.30;;;14.40;;
59938;SDS011;45801;51.810;19.444;2023-07-29T04:41:57;19.90;;;13.60;;
59938;SDS011;45801;51.810;19.444;2023-07-29T04:44:24;19.60;;;13.30;;
59938;SDS011;45801;51.810;19.444;2023-07-29T04:46:50;18.10;;;13.40;;
59938;SDS011;45801;51.810;19.444;2023-07-29T04:49:17;18.70;;;14.30;;
59938;SDS011;45801;51.810;19.444;2023-07-29T04:51:43;28.10;;;14.30;;
59938;SDS011;45801;51.810;19.444;2023-07-29T04:54:10;19.80;;;13.50;;
59938;SDS011;45801;51.810;19.444;2023-07-29T04:56:36;17.50;;;13.20;;
59938;SDS011;45801;51.810;19.444;2023-07-29T04:59:02;17.80;;;12.90;;
59938;SDS011;45801;51.810;19.444;2023-07-29T05:01:29;16.50;;;11.80;;
59938;SDS011;45801;51.810;19.444;2023-07-29T05:03:55;16.40;;;11.60;;
59938;SDS011;45801;51.810;19.444;2023-07-29T05:06:22;15.80;;;12.20;;
59938;SDS011;45801;51.810;19.444;2023-07-29T05:08:48;14.70;;;11.50;;
59938;SDS011;45801;51.810;19.444;2023-07-29T05:11:14;16.70;;;12.80;;
59938;SDS011;45801;51.810;19.444;2023-07-29T05:13:41;16.20;;;12.90;;
59938;SDS011;45801;51.810;19.444;2023-07-29T05:16:10;16.60;;;12.80;;
59938;SDS011;45801;51.810;19.444;2023-07-29T05:18:36;16.10;;;12.40;;
59938;SDS011;45801;51.810;19.444;2023-07-29T05:21:02;18.40;;;13.30;;
59938;SDS011;45801;51.810;19.444;2023-07-29T05:23:29;15.80;;;12.40;;
59938;SDS011;45801;51.810;19.444;2023-07-29T05:25:55;16.40;;;13.40;;
59938;SDS011;45801;51.810;19.444;2023-07-29T05:28:22;18.40;;;13.10;;
59938;SDS011;45801;51.810;19.444;2023-07-29T05:30:49;17.40;;;14.00;;
59938;SDS011;45801;51.810;19.444;2023-07-29T05:33:15;18.40;;;13.00;;
59938;SDS011;45801;51.810;19.444;2023-07-29T05:35:42;18.90;;;13.90;;
59938;SDS011;45801;51.810;19.444;2023-07-29T05:38:08;20.80;;;15.10;;
59938;SDS011;45801;51.810;19.444;2023-07-29T05:40:35;20.70;;;14.20;;
59938;SDS011;45801;51.810;19.444;2023-07-29T05:43:02;23.70;;;15.20;;
59938;SDS011;45801;51.810;19.444;2023-07-29T05:45:29;24.60;;;16.20;;
59938;SDS011;45801;51.810;19.444;2023-07-29T05:47:57;23.80;;;16.00;;
59938;SDS011;45801;51.810;19.444;2023-07-29T05:50:23;24.00;;;16.10;;
59938;SDS011;45801;51.810;19.444;2023-07-29T05:52:49;25.20;;;16.70;;
59938;SDS011;45801;51.810;19.444;2023-07-29T05:55:16;19.10;;;14.20;;
59938;SDS011;45801;51.810;19.444;2023-07-29T05:57:42;21.60;;;15.10;;
59938;SDS011;45801;51.810;19.444;2023-07-29T06:00:10;18.50;;;14.20;;
59938;SDS011;45801;51.810;19.444;2023-07-29T06:02:37;18.20;;;13.70;;
59938;SDS011;45801;51.810;19.444;2023-07-29T06:05:03;17.70;;;12.50;;
59938;SDS011;45801;51.810;19.444;2023-07-29T06:07:30;16.50;;;13.10;;
59938;SDS011;45801;51.810;19.444;2023-07-29T06:09:58;16.80;;;13.20;;
59938;SDS011;45801;51.810;19.444;2023-07-29T06:12:25;18.00;;;14.30;;
59938;SDS011;45801;51.810;19.444;2023-07-29T06:14:51;15.60;;;12.80;;
59938;SDS011;45801;51.810;19.444;2023-07-29T06:17:18;16.30;;;13.20;;
59938;SDS011;45801;51.810;19.444;2023-07-29T06:20:00;18.90;;;13.30;;
59938;SDS011;45801;51.810;19.444;2023-07-29T06:22:26;16.80;;;12.70;;
59938;SDS011;45801;51.810;19.444;2023-07-29T06:24:53;16.60;;;12.20;;
59938;SDS011;45801;51.810;19.444;2023-07-29T06:27:19;17.10;;;12.80;;
59938;SDS011;45801;51.810;19.444;2023-07-29T06:29:45;15.90;;;11.80;;
59938;SDS011;45801;51.810;19.444;2023-07-29T06:32:12;17.30;;;13.50;;
59938;SDS011;45801;51.810;19.444;2023-07-29T06:34:38;17.90;;;12.80;;
59938;SDS011;45801;51.810;19.444;2023-07-29T06:37:05;15.00;;;11.60;;
59938;SDS011;45801;51.810;19.444;2023-07-29T06:39:31;15.60;;;11.90;;
59938;SDS011;45801;51.810;19.444;2023-07-29T06:41:58;15.80;;;11.30;;
59938;SDS011;45801;51.810;19.444;2023-07-29T06:44:24;15.90;;;11.80;;
59938;SDS011;45801;51.810;19.444;2023-07-29T06:46:50;15.90;;;11.30;;
59938;SDS011;45801;51.810;19.444;2023-07-29T06:49:17;15.10;;;11.70;;
59938;SDS011;45801;51.810;19.444;2023-07-29T06:51:43;13.40;;;9.90;;
59938;SDS011;45801;51.810;19.444;2023-07-29T06:54:10;14.20;;;10.50;;
59938;SDS011;45801;51.810;19.444;2023-07-29T06:56:36;13.60;;;9.70;;
59938;SDS011;45801;51.810;19.444;2023-07-29T06:59:03;13.70;;;11.30;;
59938;SDS011;45801;51.810;19.444;2023-07-29T07:01:29;13.50;;;10.30;;
59938;SDS011;45801;51.810;19.444;2023-07-29T07:03:56;14.30;;;9.90;;
59938;SDS011;45801;51.810;19.444;2023-07-29T07:06:24;12.70;;;9.40;;
59938;SDS011;45801;51.810;19.444;2023-07-29T07:08:51;12.30;;;8.90;;
59938;SDS011;45801;51.810;19.444;2023-07-29T07:11:19;11.20;;;8.20;;
59938;SDS011;45801;51.810;19.444;2023-07-29T07:13:46;12.60;;;9.20;;
59938;SDS011;45801;51.810;19.444;2023-07-29T07:16:12;10.30;;;6.70;;
59938;SDS011;45801;51.810;19.444;2023-07-29T07:18:38;9.60;;;6.50;;
59938;SDS011;45801;51.810;19.444;2023-07-29T07:21:05;11.10;;;7.20;;
59938;SDS011;45801;51.810;19.444;2023-07-29T07:23:31;11.00;;;7.20;;
59938;SDS011;45801;51.810;19.444;2023-07-29T07:25:58;11.30;;;6.70;;
59938;SDS011;45801;51.810;19.444;2023-07-29T07:28:24;10.60;;;7.30;;
59938;SDS011;45801;51.810;19.444;2023-07-29T07:30:51;12.80;;;9.10;;
59938;SDS011;45801;51.810;19.444;2023-07-29T07:33:17;11.10;;;7.60;;
59938;SDS011;45801;51.810;19.444;2023-07-29T07:35:44;10.40;;;7.20;;
59938;SDS011;45801;51.810;19.444;2023-07-29T07:38:11;10.50;;;7.10;;
59938;SDS011;45801;51.810;19.444;2023-07-29T07:40:37;10.80;;;7.10;;
59938;SDS011;45801;51.810;19.444;2023-07-29T07:43:03;11.50;;;6.60;;
59938;SDS011;45801;51.810;19.444;2023-07-29T07:45:31;10.10;;;6.50;;
59938;SDS011;45801;51.810;19.444;2023-07-29T07:47:58;9.80;;;6.40;;
59938;SDS011;45801;51.810;19.444;2023-07-29T07:50:25;9.50;;;5.30;;
59938;SDS011;45801;51.810;19.444;2023-07-29T07:52:51;8.30;;;5.20;;
59938;SDS011;45801;51.810;19.444;2023-07-29T07:55:18;8.20;;;5.00;;
59938;SDS011;45801;51.810;19.444;2023-07-29T07:57:44;8.80;;;5.00;;
59938;SDS011;45801;51.810;19.444;2023-07-29T08:00:12;8.00;;;4.60;;
59938;SDS011;45801;51.810;19.444;2023-07-29T08:02:43;7.80;;;5.20;;
59938;SDS011;45801;51.810;19.444;2023-07-29T08:05:10;8.80;;;5.40;;
59938;SDS011;45801;51.810;19.444;2023-07-29T08:07:36;9.80;;;6.00;;
59938;SDS011;45801;51.810;19.444;2023-07-29T08:10:03;8.80;;;5.50;;
59938;SDS011;45801;51.810;19.444;2023-07-29T08:12:29;9.30;;;5.80;;
59938;SDS011;45801;51.810;19.444;2023-07-29T08:14:56;8.40;;;5.70;;
59938;SDS011;45801;51.810;19.444;2023-07-29T08:17:22;8.80;;;5.20;;
59938;SDS011;45801;51.810;19.444;2023-07-29T08:19:48;8.70;;;5.40;;
59938;SDS011;45801;51.810;19.444;2023-07-29T08:22:15;8.40;;;4.90;;
59938;SDS011;45801;51.810;19.444;2023-07-29T08:24:43;8.30;;;5.10;;
59938;SDS011;45801;51.810;19.444;2023-07-29T08:27:09;6.40;;;2.90;;
59938;SDS011;45801;51.810;19.444;2023-07-29T08:29:36;8.40;;;4.40;;
59938;SDS011;45801;51.810;19.444;2023-07-29T08:32:02;9.10;;;4.60;;
59938;SDS011;45801;51.810;19.444;2023-07-29T08:34:29;6.60;;;3.50;;
59938;SDS011;45801;51.810;19.444;2023-07-29T08:36:55;7.90;;;4.40;;
59938;SDS011;45801;51.810;19.444;2023-07-29T08:39:22;7.20;;;3.80;;
59938;SDS011;45801;51.810;19.444;2023-07-29T08:44:35;6.90;;;3.80;;
59938;SDS011;45801;51.810;19.444;2023-07-29T08:47:12;7.40;;;3.80;;
59938;SDS011;45801;51.810;19.444;2023-07-29T08:49:40;6.90;;;3.70;;
59938;SDS011;45801;51.810;19.444;2023-07-29T08:52:07;7.00;;;3.70;;
59938;SDS011;45801;51.810;19.444;2023-07-29T08:54:35;7.30;;;3.80;;
59938;SDS011;45801;51.810;19.444;2023-07-29T08:57:03;6.80;;;3.70;;
59938;SDS011;45801;51.810;19.444;2023-07-29T08:59:30;5.80;;;3.30;;
59938;SDS011;45801;51.810;19.444;2023-07-29T09:01:57;7.20;;;3.00;;
59938;SDS011;45801;51.810;19.444;2023-07-29T09:04:24;6.00;;;3.10;;
59938;SDS011;45801;51.810;19.444;2023-07-29T09:06:51;5.80;;;3.00;;
59938;SDS011;45801;51.810;19.444;2023-07-29T09:09:17;7.00;;;3.30;;
59938;SDS011;45801;51.810;19.444;2023-07-29T09:11:44;6.10;;;3.20;;
59938;SDS011;45801;51.810;19.444;2023-07-29T09:14:10;6.70;;;3.20;;
59938;SDS011;45801;51.810;19.444;2023-07-29T09:16:38;6.80;;;2.90;;
59938;SDS011;45801;51.810;19.444;2023-07-29T09:19:04;6.30;;;3.30;;
59938;SDS011;45801;51.810;19.444;2023-07-29T09:21:31;5.80;;;3.00;;
59938;SDS011;45801;51.810;19.444;2023-07-29T09:24:02;6.60;;;3.10;;
59938;SDS011;45801;51.810;19.444;2023-07-29T09:26:30;6.10;;;3.00;;
59938;SDS011;45801;51.810;19.444;2023-07-29T09:28:58;7.10;;;3.00;;
59938;SDS011;45801;51.810;19.444;2023-07-29T09:31:26;6.00;;;3.30;;
59938;SDS011;45801;51.810;19.444;2023-07-29T09:34:03;5.80;;;3.00;;
59938;SDS011;45801;51.810;19.444;2023-07-29T09:36:32;6.30;;;3.00;;
59938;SDS011;45801;51.810;19.444;2023-07-29T09:39:00;5.80;;;3.40;;
59938;SDS011;45801;51.810;19.444;2023-07-29T09:41:29;6.00;;;3.20;;
59938;SDS011;45801;51.810;19.444;2023-07-29T09:44:02;5.60;;;2.90;;
59938;SDS011;45801;51.810;19.444;2023-07-29T09:46:36;5.20;;;2.90;;
59938;SDS011;45801;51.810;19.444;2023-07-29T09:49:04;5.70;;;3.00;;
59938;SDS011;45801;51.810;19.444;2023-07-29T09:51:32;5.90;;;2.80;;
59938;SDS011;45801;51.810;19.444;2023-07-29T09:54:03;5.70;;;3.00;;
59938;SDS011;45801;51.810;19.444;2023-07-29T09:56:31;5.60;;;2.50;;
59938;SDS011;45801;51.810;19.444;2023-07-29T09:58:57;5.50;;;3.00;;
59938;SDS011;45801;51.810;19.444;2023-07-29T10:01:24;5.70;;;2.60;;
59938;SDS011;45801;51.810;19.444;2023-07-29T10:03:52;5.30;;;2.80;;
59938;SDS011;45801;51.810;19.444;2023-07-29T10:06:18;5.50;;;3.00;;
59938;SDS011;45801;51.810;19.444;2023-07-29T10:08:46;5.90;;;2.90;;
59938;SDS011;45801;51.810;19.444;2023-07-29T10:11:14;6.60;;;3.10;;
59938;SDS011;45801;51.810;19.444;2023-07-29T10:13:40;5.50;;;2.70;;
59938;SDS011;45801;51.810;19.444;2023-07-29T10:16:07;7.10;;;2.70;;
59938;SDS011;45801;51.810;19.444;2023-07-29T10:18:33;6.70;;;3.10;;
59938;SDS011;45801;51.810;19.444;2023-07-29T10:21:01;5.80;;;2.90;;
59938;SDS011;45801;51.810;19.444;2023-07-29T10:23:38;5.90;;;3.00;;
59938;SDS011;45801;51.810;19.444;2023-07-29T10:26:10;6.30;;;2.90;;
59938;SDS011;45801;51.810;19.444;2023-07-29T10:28:41;6.00;;;2.90;;
59938;SDS011;45801;51.810;19.444;2023-07-29T10:31:16;5.70;;;2.60;;
59938;SDS011;45801;51.810;19.444;2023-07-29T10:33:43;6.70;;;2.60;;
59938;SDS011;45801;51.810;19.444;2023-07-29T10:36:11;5.80;;;2.70;;
59938;SDS011;45801;51.810;19.444;2023-07-29T10:38:38;5.70;;;3.00;;
59938;SDS011;45801;51.810;19.444;2023-07-29T10:41:05;5.90;;;2.80;;
59938;SDS011;45801;51.810;19.444;2023-07-29T10:43:32;5.50;;;2.80;;
59938;SDS011;45801;51.810;19.444;2023-07-29T10:48:53;5.50;;;2.60;;
59938;SDS011;45801;51.810;19.444;2023-07-29T10:51:31;5.60;;;2.60;;
59938;SDS011;45801;51.810;19.444;2023-07-29T10:56:33;6.10;;;2.70;;
59938;SDS011;45801;51.810;19.444;2023-07-29T11:01:43;5.40;;;2.60;;
59938;SDS011;45801;51.810;19.444;2023-07-29T11:10:05;5.70;;;2.60;;
59938;SDS011;45801;51.810;19.444;2023-07-29T11:15:17;6.00;;;2.60;;
59938;SDS011;45801;51.810;19.444;2023-07-29T11:20:12;4.80;;;2.50;;
59938;SDS011;45801;51.810;19.444;2023-07-29T11:22:40;5.10;;;2.30;;
59938;SDS011;45801;51.810;19.444;2023-07-29T11:25:08;5.50;;;2.30;;
59938;SDS011;45801;51.810;19.444;2023-07-29T11:27:36;5.40;;;2.40;;
59938;SDS011;45801;51.810;19.444;2023-07-29T11:30:03;5.00;;;2.30;;
59938;SDS011;45801;51.810;19.444;2023-07-29T11:32:37;6.10;;;2.60;;
59938;SDS011;45801;51.810;19.444;2023-07-29T11:35:07;4.80;;;2.30;;
59938;SDS011;45801;51.810;19.444;2023-07-29T11:37:36;5.80;;;3.00;;
59938;SDS011;45801;51.810;19.444;2023-07-29T11:40:04;6.00;;;2.30;;
59938;SDS011;45801;51.810;19.444;2023-07-29T11:42:33;5.60;;;2.50;;
59938;SDS011;45801;51.810;19.444;2023-07-29T11:45:03;5.50;;;2.80;;
59938;SDS011;45801;51.810;19.444;2023-07-29T11:50:12;5.00;;;2.40;;
59938;SDS011;45801;51.810;19.444;2023-07-29T11:52:40;9.00;;;2.60;;
59938;SDS011;45801;51.810;19.444;2023-07-29T11:55:12;7.00;;;2.50;;
59938;SDS011;45801;51.810;19.444;2023-07-29T11:57:40;8.90;;;3.00;;
59938;SDS011;45801;51.810;19.444;2023-07-29T12:00:08;5.40;;;2.40;;
59938;SDS011;45801;51.810;19.444;2023-07-29T12:02:38;5.10;;;2.50;;
59938;SDS011;45801;51.810;19.444;2023-07-29T12:05:08;6.40;;;2.50;;
59938;SDS011;45801;51.810;19.444;2023-07-29T12:07:38;4.60;;;2.20;;
59938;SDS011;45801;51.810;19.444;2023-07-29T12:10:05;5.10;;;2.60;;
59938;SDS011;45801;51.810;19.444;2023-07-29T12:12:32;5.90;;;2.80;;
59938;SDS011;45801;51.810;19.444;2023-07-29T12:14:59;6.70;;;3.10;;
59938;SDS011;45801;51.810;19.444;2023-07-29T12:17:27;5.80;;;2.80;;
59938;SDS011;45801;51.810;19.444;2023-07-29T12:19:54;6.10;;;2.50;;
59938;SDS011;45801;51.810;19.444;2023-07-29T12:22:21;5.20;;;2.20;;
59938;SDS011;45801;51.810;19.444;2023-07-29T12:24:49;5.20;;;2.40;;
59938;SDS011;45801;51.810;19.444;2023-07-29T12:27:17;5.60;;;2.40;;
59938;SDS011;45801;51.810;19.444;2023-07-29T12:29:43;4.90;;;2.50;;
59938;SDS011;45801;51.810;19.444;2023-07-29T12:32:12;5.60;;;2.60;;
59938;SDS011;45801;51.810;19.444;2023-07-29T12:34:40;6.10;;;2.40;;
59938;SDS011;45801;51.810;19.444;2023-07-29T12:37:06;7.00;;;2.70;;
59938;SDS011;45801;51.810;19.444;2023-07-29T12:39:34;6.20;;;2.90;;
59938;SDS011;45801;51.810;19.444;2023-07-29T12:42:02;5.70;;;2.70;;
59938;SDS011;45801;51.810;19.444;2023-07-29T12:44:31;5.30;;;2.60;;
59938;SDS011;45801;51.810;19.444;2023-07-29T12:47:00;4.70;;;2.20;;
59938;SDS011;45801;51.810;19.444;2023-07-29T12:49:29;4.80;;;2.10;;
59938;SDS011;45801;51.810;19.444;2023-07-29T12:51:56;5.60;;;2.30;;
59938;SDS011;45801;51.810;19.444;2023-07-29T12:54:23;6.10;;;2.70;;
59938;SDS011;45801;51.810;19.444;2023-07-29T12:56:50;5.80;;;2.30;;
59938;SDS011;45801;51.810;19.444;2023-07-29T12:59:17;6.00;;;2.50;;
59938;SDS011;45801;51.810;19.444;2023-07-29T13:01:44;5.00;;;2.20;;
59938;SDS011;45801;51.810;19.444;2023-07-29T13:04:10;6.60;;;2.50;;
59938;SDS011;45801;51.810;19.444;2023-07-29T13:06:37;5.00;;;2.50;;
59938;SDS011;45801;51.810;19.444;2023-07-29T13:09:03;5.90;;;2.40;;
59938;SDS011;45801;51.810;19.444;2023-07-29T13:11:31;5.70;;;2.40;;
59938;SDS011;45801;51.810;19.444;2023-07-29T13:14:01;6.10;;;2.70;;
59938;SDS011;45801;51.810;19.444;2023-07-29T13:16:28;5.20;;;2.60;;
59938;SDS011;45801;51.810;19.444;2023-07-29T13:18:55;5.50;;;2.70;;
59938;SDS011;45801;51.810;19.444;2023-07-29T13:21:22;5.90;;;2.90;;
59938;SDS011;45801;51.810;19.444;2023-07-29T13:23:49;5.10;;;2.40;;
59938;SDS011;45801;51.810;19.444;2023-07-29T13:26:16;4.80;;;2.10;;
59938;SDS011;45801;51.810;19.444;2023-07-29T13:28:42;6.40;;;2.70;;
59938;SDS011;45801;51.810;19.444;2023-07-29T13:31:08;6.30;;;2.60;;
59938;SDS011;45801;51.810;19.444;2023-07-29T13:33:35;4.30;;;2.10;;
59938;SDS011;45801;51.810;19.444;2023-07-29T13:36:02;6.60;;;2.30;;
59938;SDS011;45801;51.810;19.444;2023-07-29T13:38:29;6.10;;;2.40;;
59938;SDS011;45801;51.810;19.444;2023-07-29T13:40:56;4.60;;;2.20;;
59938;SDS011;45801;51.810;19.444;2023-07-29T13:43:22;6.00;;;2.50;;
59938;SDS011;45801;51.810;19.444;2023-07-29T13:45:49;5.10;;;2.30;;
59938;SDS011;45801;51.810;19.444;2023-07-29T13:48:16;5.80;;;2.40;;
59938;SDS011;45801;51.810;19.444;2023-07-29T13:50:42;5.50;;;2.60;;
59938;SDS011;45801;51.810;19.444;2023-07-29T13:53:10;5.30;;;2.60;;
59938;SDS011;45801;51.810;19.444;2023-07-29T13:55:36;5.40;;;2.50;;
59938;SDS011;45801;51.810;19.444;2023-07-29T13:58:03;5.80;;;2.30;;
59938;SDS011;45801;51.810;19.444;2023-07-29T14:00:29;6.20;;;2.20;;
59938;SDS011;45801;51.810;19.444;2023-07-29T14:02:56;5.20;;;2.40;;
59938;SDS011;45801;51.810;19.444;2023-07-29T14:05:22;4.70;;;2.10;;
59938;SDS011;45801;51.810;19.444;2023-07-29T14:07:49;5.60;;;2.40;;
59938;SDS011;45801;51.810;19.444;2023-07-29T14:10:15;6.20;;;2.80;;
59938;SDS011;45801;51.810;19.444;2023-07-29T14:12:42;7.40;;;2.20;;
59938;SDS011;45801;51.810;19.444;2023-07-29T14:15:08;5.40;;;2.40;;
59938;SDS011;45801;51.810;19.444;2023-07-29T14:17:35;5.90;;;2.50;;
59938;SDS011;45801;51.810;19.444;2023-07-29T14:20:01;4.70;;;2.10;;
59938;SDS011;45801;51.810;19.444;2023-07-29T14:22:29;5.30;;;2.10;;
59938;SDS011;45801;51.810;19.444;2023-07-29T14:24:55;5.00;;;2.30;;
59938;SDS011;45801;51.810;19.444;2023-07-29T14:27:21;5.90;;;2.70;;
59938;SDS011;45801;51.810;19.444;2023-07-29T14:29:48;11.30;;;2.50;;
59938;SDS011;45801;51.810;19.444;2023-07-29T14:32:14;6.10;;;2.60;;
59938;SDS011;45801;51.810;19.444;2023-07-29T14:34:41;6.40;;;2.70;;
59938;SDS011;45801;51.810;19.444;2023-07-29T14:37:07;4.70;;;2.30;;
59938;SDS011;45801;51.810;19.444;2023-07-29T14:39:33;5.60;;;2.40;;
59938;SDS011;45801;51.810;19.444;2023-07-29T14:42:01;6.10;;;2.30;;
59938;SDS011;45801;51.810;19.444;2023-07-29T14:44:27;4.50;;;2.10;;
59938;SDS011;45801;51.810;19.444;2023-07-29T14:46:54;5.50;;;2.10;;
59938;SDS011;45801;51.810;19.444;2023-07-29T14:49:21;4.60;;;2.10;;
59938;SDS011;45801;51.810;19.444;2023-07-29T14:51:48;4.50;;;1.90;;
59938;SDS011;45801;51.810;19.444;2023-07-29T14:54:14;4.90;;;2.40;;
59938;SDS011;45801;51.810;19.444;2023-07-29T14:56:41;6.40;;;2.30;;